Time;durP1;ratioP1;P1;durP2;ratioP2;P2;SDS_P1;SDS_P2;PMS_P1;PMS_P2;Temp;Humidity;BMP_temperature;BMP_pressure;BME280_temperature;BME280_humidity;BME280_pressure;Samples;Min_cycle;Max_cycle;Signal;HPM_P1;HPM_P2
2022/01/21 00:00:22;;;;;;;5.67;1.90;;;;;;;;;;5059817;28;20430;-56
2022/01/21 00:02:49;;;;;;;6.33;2.30;;;;;;;;;;5069384;28;20247;-56
2022/01/21 00:05:15;;;;;;;6.97;2.40;;;;;;;;;;5071710;28;20430;-56
2022/01/21 00:07:42;;;;;;;9.30;2.27;;;;;;;;;;5061030;28;21021;-56
2022/01/21 00:10:11;;;;;;;7.57;3.07;;;;;;;;;;5062352;28;20441;-56
2022/01/21 00:12:38;;;;;;;9.37;2.73;;;;;;;;;;5080612;28;20530;-56
2022/01/21 00:15:05;;;;;;;3.60;2.10;;;;;;;;;;5053031;28;20439;-56
2022/01/21 00:17:32;;;;;;;6.23;2.10;;;;;;;;;;5068089;28;20200;-56
2022/01/21 00:30:58;;;;;;;4.47;1.97;;;;;;;;;;5075389;28;20445;-56
2022/01/21 00:33:24;;;;;;;8.43;3.10;;;;;;;;;;5082691;28;20419;-56
2022/01/21 00:35:50;;;;;;;7.03;2.43;;;;;;;;;;5073424;28;20431;-56
2022/01/21 00:38:16;;;;;;;7.27;2.27;;;;;;;;;;5081692;28;20863;-56
2022/01/21 00:40:43;;;;;;;4.97;2.20;;;;;;;;;;5074196;28;20901;-56
2022/01/21 00:43:18;;;;;;;4.70;2.00;;;;;;;;;;5049637;28;20489;-56
2022/01/21 00:45:44;;;;;;;3.23;2.00;;;;;;;;;;5072658;28;20410;-56
2022/01/21 00:48:11;;;;;;;3.73;1.80;;;;;;;;;;5068335;28;20791;-56
2022/01/21 00:50:37;;;;;;;3.57;1.87;;;;;;;;;;5072740;28;20845;-56
2022/01/21 00:53:03;;;;;;;8.10;2.30;;;;;;;;;;5078680;28;20450;-56
2022/01/21 00:55:29;;;;;;;5.13;2.30;;;;;;;;;;5067765;28;20780;-56
2022/01/21 00:57:58;;;;;;;4.97;2.03;;;;;;;;;;5073582;28;21023;-56
2022/01/21 01:00:24;;;;;;;7.00;2.37;;;;;;;;;;5076253;28;20275;-56
2022/01/21 01:02:53;;;;;;;5.20;2.20;;;;;;;;;;5084377;28;20418;-56
2022/01/21 01:05:19;;;;;;;7.67;1.87;;;;;;;;;;5080960;28;20880;-56
2022/01/21 01:07:45;;;;;;;4.40;2.17;;;;;;;;;;5065654;28;21001;-56
2022/01/21 01:10:18;;;;;;;3.87;1.83;;;;;;;;;;5084940;28;20175;-56
2022/01/21 01:20:48;;;;;;;6.30;2.30;;;;;;;;;;5079094;28;20417;-56
2022/01/21 01:23:37;;;;;;;9.53;2.90;;;;;;;;;;5074794;28;20428;-54
2022/01/21 01:28:48;;;;;;;7.77;2.57;;;;;;;;;;5087324;28;20475;-56
2022/01/21 01:31:14;;;;;;;3.10;1.87;;;;;;;;;;5061131;28;21044;-56
2022/01/21 01:33:41;;;;;;;4.53;1.60;;;;;;;;;;5074762;28;20469;-55
2022/01/21 01:36:09;;;;;;;5.17;2.60;;;;;;;;;;5085266;28;20534;-56
2022/01/21 01:39:02;;;;;;;3.60;2.07;;;;;;;;;;5086020;28;20866;-56
2022/01/21 01:41:44;;;;;;;5.93;2.47;;;;;;;;;;5085599;28;20414;-56
2022/01/21 01:49:48;;;;;;;7.70;1.90;;;;;;;;;;5053105;28;20788;-56
2022/01/21 01:52:16;;;;;;;6.33;2.37;;;;;;;;;;5067255;28;20429;-56
2022/01/21 01:54:43;;;;;;;4.90;2.03;;;;;;;;;;5085352;28;20422;-56
2022/01/21 01:57:10;;;;;;;3.40;2.10;;;;;;;;;;5081170;28;20473;-56
2022/01/21 01:59:36;;;;;;;7.63;1.90;;;;;;;;;;5086800;28;20414;-57
2022/01/21 02:02:09;;;;;;;3.03;1.70;;;;;;;;;;5100213;28;20466;-56
2022/01/21 02:04:36;;;;;;;3.10;1.87;;;;;;;;;;5073825;28;20937;-56
2022/01/21 02:07:02;;;;;;;4.73;2.23;;;;;;;;;;5082614;28;20930;-56
2022/01/21 02:09:32;;;;;;;5.77;1.83;;;;;;;;;;5082020;28;20804;-55
2022/01/21 02:11:58;;;;;;;4.93;2.07;;;;;;;;;;5071043;28;20442;-56
2022/01/21 02:14:32;;;;;;;5.57;1.93;;;;;;;;;;5081437;28;20525;-56
2022/01/21 02:22:14;;;;;;;4.97;2.10;;;;;;;;;;5079173;28;20398;-56
2022/01/21 02:24:57;;;;;;;3.83;1.73;;;;;;;;;;5076910;28;20490;-56
2022/01/21 02:27:23;;;;;;;7.07;2.27;;;;;;;;;;5079757;28;20406;-56
2022/01/21 02:29:53;;;;;;;1.93;1.47;;;;;;;;;;5063074;28;20879;-56
2022/01/21 02:32:23;;;;;;;2.90;1.70;;;;;;;;;;5067852;28;20425;-56
2022/01/21 02:34:50;;;;;;;2.83;1.70;;;;;;;;;;5087723;28;20897;-56
2022/01/21 02:37:18;;;;;;;7.53;2.10;;;;;;;;;;5071000;28;20489;-56
2022/01/21 02:39:44;;;;;;;5.40;1.70;;;;;;;;;;5084564;28;20418;-57
2022/01/21 02:42:11;;;;;;;2.07;1.67;;;;;;;;;;5051459;28;20476;-57
2022/01/21 02:44:40;;;;;;;2.97;1.77;;;;;;;;;;5064248;28;20433;-56
2022/01/21 02:47:07;;;;;;;4.70;2.47;;;;;;;;;;5059717;28;20423;-57
2022/01/21 02:49:33;;;;;;;3.87;2.03;;;;;;;;;;5083340;28;20430;-56
2022/01/21 02:52:04;;;;;;;5.40;1.70;;;;;;;;;;5088568;28;20426;-56
2022/01/21 02:54:36;;;;;;;3.80;1.93;;;;;;;;;;5057500;28;20430;-56
2022/01/21 02:57:03;;;;;;;4.80;1.57;;;;;;;;;;5070557;28;20476;-56
2022/01/21 02:59:29;;;;;;;3.70;2.20;;;;;;;;;;5083098;28;20907;-56
2022/01/21 03:01:56;;;;;;;6.23;2.30;;;;;;;;;;5067932;28;20387;-57
2022/01/21 03:04:44;;;;;;;6.27;1.73;;;;;;;;;;5071458;28;20979;-56
2022/01/21 03:07:11;;;;;;;3.50;1.90;;;;;;;;;;5062673;28;20457;-56
2022/01/21 03:09:37;;;;;;;5.40;1.90;;;;;;;;;;5077765;28;20427;-56
2022/01/21 03:12:04;;;;;;;3.40;1.60;;;;;;;;;;5089503;28;20418;-56
2022/01/21 03:14:30;;;;;;;3.20;2.00;;;;;;;;;;5077235;28;20433;-56
2022/01/21 03:16:59;;;;;;;5.13;1.77;;;;;;;;;;5053536;28;20450;-56
2022/01/21 03:19:25;;;;;;;2.73;1.90;;;;;;;;;;5052192;28;20918;-56
2022/01/21 03:21:52;;;;;;;3.80;1.67;;;;;;;;;;5054950;28;20415;-57
2022/01/21 03:24:21;;;;;;;6.63;2.97;;;;;;;;;;5082005;28;20763;-56
2022/01/21 03:26:47;;;;;;;3.40;1.93;;;;;;;;;;5080399;28;20800;-56
2022/01/21 03:29:13;;;;;;;3.70;1.80;;;;;;;;;;5082529;28;20430;-57
2022/01/21 03:31:39;;;;;;;3.87;1.93;;;;;;;;;;5085963;28;20429;-56
2022/01/21 03:34:06;;;;;;;4.57;1.80;;;;;;;;;;5083867;28;20941;-56
2022/01/21 03:36:32;;;;;;;3.50;1.60;;;;;;;;;;5083401;28;20449;-57
2022/01/21 03:38:59;;;;;;;5.60;2.10;;;;;;;;;;5078491;28;20495;-57
2022/01/21 03:41:25;;;;;;;5.20;2.00;;;;;;;;;;5057775;28;21001;-56
2022/01/21 03:43:51;;;;;;;4.30;1.90;;;;;;;;;;5076635;28;20936;-57
2022/01/21 03:46:18;;;;;;;3.03;1.83;;;;;;;;;;5063847;28;20803;-57
2022/01/21 03:48:47;;;;;;;5.40;2.17;;;;;;;;;;5081873;28;20434;-57
2022/01/21 03:51:13;;;;;;;4.77;2.27;;;;;;;;;;5084119;28;20437;-57
2022/01/21 03:53:39;;;;;;;3.93;1.83;;;;;;;;;;5083677;28;20993;-56
2022/01/21 03:56:06;;;;;;;3.70;1.70;;;;;;;;;;5081508;28;20499;-57
2022/01/21 03:58:32;;;;;;;2.87;1.63;;;;;;;;;;5086237;28;20457;-57
2022/01/21 04:00:58;;;;;;;4.27;1.80;;;;;;;;;;5085680;28;20854;-56
2022/01/21 04:03:26;;;;;;;6.97;2.00;;;;;;;;;;5082231;28;20488;-57
2022/01/21 04:05:56;;;;;;;1.80;1.37;;;;;;;;;;5063597;28;20429;-57
2022/01/21 04:08:25;;;;;;;8.83;2.10;;;;;;;;;;5070549;28;20423;-57
2022/01/21 04:10:51;;;;;;;2.97;1.90;;;;;;;;;;5081029;28;20479;-56
2022/01/21 04:13:20;;;;;;;3.93;1.67;;;;;;;;;;5065352;28;20431;-57
2022/01/21 04:15:53;;;;;;;3.20;1.77;;;;;;;;;;5080740;28;20429;-56
2022/01/21 04:18:20;;;;;;;3.80;2.30;;;;;;;;;;5073943;28;20454;-57
2022/01/21 04:20:47;;;;;;;5.77;1.90;;;;;;;;;;5082755;28;20584;-56
2022/01/21 04:23:14;;;;;;;3.43;2.20;;;;;;;;;;5065346;28;20990;-57
2022/01/21 04:25:40;;;;;;;3.40;2.00;;;;;;;;;;5085629;28;20624;-57
2022/01/21 04:28:10;;;;;;;2.73;1.70;;;;;;;;;;5066173;28;20508;-56
2022/01/21 04:30:39;;;;;;;2.63;1.40;;;;;;;;;;5068317;28;20835;-56
2022/01/21 04:33:06;;;;;;;5.13;1.60;;;;;;;;;;5082021;28;20422;-57
2022/01/21 04:35:35;;;;;;;4.70;1.43;;;;;;;;;;5065211;28;20430;-57
2022/01/21 04:38:11;;;;;;;2.60;1.57;;;;;;;;;;5074228;28;20466;-56
2022/01/21 04:40:46;;;;;;;3.40;1.40;;;;;;;;;;5068863;28;20426;-56
2022/01/21 04:48:41;;;;;;;3.57;1.93;;;;;;;;;;5068413;28;20520;-56
2022/01/21 04:51:16;;;;;;;3.10;1.30;;;;;;;;;;5078202;28;21127;-57
2022/01/21 04:53:46;;;;;;;2.50;1.90;;;;;;;;;;5081902;28;20798;-56
2022/01/21 04:56:16;;;;;;;4.07;1.53;;;;;;;;;;5082638;28;20453;-56
2022/01/21 04:58:49;;;;;;;2.40;1.73;;;;;;;;;;5068384;28;20522;-57
2022/01/21 05:01:15;;;;;;;3.53;1.67;;;;;;;;;;5064089;28;20437;-57
2022/01/21 05:03:46;;;;;;;4.90;1.70;;;;;;;;;;5066010;28;20891;-56
2022/01/21 05:06:19;;;;;;;2.93;1.63;;;;;;;;;;5082484;28;20509;-57
2022/01/21 05:08:53;;;;;;;3.80;1.80;;;;;;;;;;5083059;28;20429;-56
2022/01/21 05:11:20;;;;;;;5.97;1.60;;;;;;;;;;5069687;28;20415;-57
2022/01/21 05:13:59;;;;;;;8.20;2.20;;;;;;;;;;5060568;28;20509;-57
2022/01/21 05:18:57;;;;;;;4.50;2.10;;;;;;;;;;5083078;28;21049;-56
2022/01/21 05:21:24;;;;;;;4.33;1.77;;;;;;;;;;5088411;28;20813;-57
2022/01/21 05:23:53;;;;;;;7.67;1.90;;;;;;;;;;5077497;28;20839;-56
2022/01/21 05:26:19;;;;;;;5.27;1.60;;;;;;;;;;5079838;28;20841;-57
2022/01/21 05:28:46;;;;;;;5.97;1.60;;;;;;;;;;5064334;28;20427;-57
2022/01/21 05:31:14;;;;;;;3.77;2.17;;;;;;;;;;5079560;28;20467;-57
2022/01/21 05:33:40;;;;;;;4.70;2.00;;;;;;;;;;5066759;28;20483;-56
2022/01/21 05:36:07;;;;;;;4.33;1.57;;;;;;;;;;5064676;28;20423;-56
2022/01/21 05:38:33;;;;;;;4.03;1.70;;;;;;;;;;5074654;28;20538;-56
2022/01/21 05:40:59;;;;;;;6.40;1.60;;;;;;;;;;5066016;28;20411;-57
2022/01/21 05:43:28;;;;;;;3.83;1.80;;;;;;;;;;5076148;28;20429;-57
2022/01/21 05:48:39;;;;;;;4.93;1.90;;;;;;;;;;5082311;28;20405;-56
2022/01/21 05:51:08;;;;;;;3.40;1.50;;;;;;;;;;5086322;28;20881;-56
2022/01/21 05:53:37;;;;;;;3.30;1.60;;;;;;;;;;5076066;28;20497;-56
2022/01/21 05:56:03;;;;;;;3.60;1.80;;;;;;;;;;5064097;28;20482;-57
2022/01/21 05:58:35;;;;;;;3.30;1.93;;;;;;;;;;5078144;28;20524;-56
2022/01/21 06:01:05;;;;;;;7.20;2.00;;;;;;;;;;5069576;28;20419;-56
2022/01/21 06:03:32;;;;;;;6.90;2.10;;;;;;;;;;5052503;28;20759;-57
2022/01/21 06:06:03;;;;;;;2.83;1.33;;;;;;;;;;5060923;28;20433;-57
2022/01/21 06:08:32;;;;;;;8.17;2.40;;;;;;;;;;5052250;28;20424;-57
2022/01/21 06:10:58;;;;;;;3.30;1.77;;;;;;;;;;5048065;28;20431;-56
2022/01/21 06:13:27;;;;;;;5.10;1.70;;;;;;;;;;5063338;28;20513;-56
2022/01/21 06:15:58;;;;;;;5.33;1.97;;;;;;;;;;5063572;28;20489;-57
2022/01/21 06:18:24;;;;;;;6.53;2.37;;;;;;;;;;5059913;28;20484;-57
2022/01/21 06:20:53;;;;;;;3.60;1.70;;;;;;;;;;5070965;28;20839;-57
2022/01/21 06:23:20;;;;;;;6.20;2.77;;;;;;;;;;5062227;28;20423;-57
2022/01/21 06:25:49;;;;;;;4.53;2.37;;;;;;;;;;5056444;28;20652;-56
2022/01/21 06:28:15;;;;;;;3.90;1.97;;;;;;;;;;5058954;28;20422;-57
2022/01/21 06:30:44;;;;;;;3.67;2.17;;;;;;;;;;5057826;28;20488;-56
2022/01/21 06:33:11;;;;;;;5.47;2.40;;;;;;;;;;5052248;28;20427;-57
2022/01/21 06:35:37;;;;;;;4.37;1.60;;;;;;;;;;5045200;28;20417;-57
2022/01/21 06:38:03;;;;;;;10.37;2.50;;;;;;;;;;5058808;28;20835;-57
2022/01/21 06:40:31;;;;;;;3.37;2.17;;;;;;;;;;5046389;28;20474;-56
2022/01/21 06:43:03;;;;;;;5.83;2.50;;;;;;;;;;5078235;28;20770;-57
2022/01/21 06:45:29;;;;;;;4.50;2.27;;;;;;;;;;5051118;28;20488;-57
2022/01/21 06:47:58;;;;;;;4.40;2.40;;;;;;;;;;5074788;28;20461;-57
2022/01/21 06:50:28;;;;;;;5.33;2.60;;;;;;;;;;5051273;28;20427;-57
2022/01/21 06:52:57;;;;;;;6.27;2.50;;;;;;;;;;5070818;28;20430;-57
2022/01/21 06:55:27;;;;;;;6.10;2.53;;;;;;;;;;5069080;28;20433;-57
2022/01/21 06:57:56;;;;;;;5.70;3.33;;;;;;;;;;5067361;28;20475;-56
2022/01/21 07:00:25;;;;;;;3.33;2.27;;;;;;;;;;5079830;28;20483;-57
2022/01/21 07:02:55;;;;;;;5.85;2.97;;;;;;;;;;5073734;28;20413;-56
2022/01/21 07:05:30;;;;;;;4.20;2.60;;;;;;;;;;5074679;28;20666;-57
2022/01/21 07:07:58;;;;;;;3.80;2.00;;;;;;;;;;5065531;28;20437;-57
2022/01/21 07:10:29;;;;;;;6.03;2.17;;;;;;;;;;5059308;28;20436;-57
2022/01/21 07:12:55;;;;;;;6.43;2.27;;;;;;;;;;5070422;28;20940;-57
2022/01/21 07:15:25;;;;;;;4.93;2.07;;;;;;;;;;5094760;28;20448;-57
2022/01/21 07:17:53;;;;;;;6.07;2.53;;;;;;;;;;5079580;28;21200;-57
2022/01/21 07:20:24;;;;;;;5.17;2.30;;;;;;;;;;5083676;28;20454;-57
2022/01/21 07:22:51;;;;;;;7.60;2.43;;;;;;;;;;5087144;28;20409;-57
2022/01/21 07:25:18;;;;;;;6.13;2.10;;;;;;;;;;5074057;28;20431;-57
2022/01/21 07:27:44;;;;;;;3.83;2.00;;;;;;;;;;5066406;28;20403;-57
2022/01/21 07:30:12;;;;;;;6.50;2.40;;;;;;;;;;5084689;28;20429;-57
2022/01/21 07:32:38;;;;;;;4.63;2.60;;;;;;;;;;5089772;28;20725;-56
2022/01/21 07:35:15;;;;;;;5.33;2.63;;;;;;;;;;5090227;28;20402;-57
2022/01/21 07:37:41;;;;;;;6.60;2.80;;;;;;;;;;5068218;28;20823;-57
2022/01/21 07:40:08;;;;;;;3.63;2.40;;;;;;;;;;5060074;28;20422;-56
2022/01/21 07:42:34;;;;;;;3.97;2.80;;;;;;;;;;5058226;28;20831;-57
2022/01/21 07:45:00;;;;;;;3.40;2.17;;;;;;;;;;5075632;28;20406;-57
2022/01/21 07:47:29;;;;;;;5.63;2.20;;;;;;;;;;5051562;28;20487;-57
2022/01/21 07:49:55;;;;;;;3.67;2.47;;;;;;;;;;5080007;28;20840;-57
2022/01/21 07:52:21;;;;;;;6.00;2.50;;;;;;;;;;5063304;28;20495;-57
2022/01/21 07:54:47;;;;;;;5.97;2.90;;;;;;;;;;5074216;28;20480;-56
2022/01/21 07:57:14;;;;;;;4.73;2.40;;;;;;;;;;5088573;28;20553;-56
2022/01/21 07:59:43;;;;;;;4.47;2.60;;;;;;;;;;5069348;28;20515;-57
2022/01/21 08:02:15;;;;;;;7.87;2.87;;;;;;;;;;5081570;28;20451;-57
2022/01/21 08:04:41;;;;;;;3.70;2.37;;;;;;;;;;5069943;28;20430;-57
2022/01/21 08:07:10;;;;;;;5.57;2.95;;;;;;;;;;5081899;28;20392;-57
2022/01/21 08:09:36;;;;;;;3.10;2.30;;;;;;;;;;5074965;28;20180;-56
2022/01/21 08:12:03;;;;;;;5.53;2.83;;;;;;;;;;5069330;28;20937;-57
2022/01/21 08:14:35;;;;;;;6.30;2.53;;;;;;;;;;5077127;28;20484;-57
2022/01/21 08:17:07;;;;;;;7.40;2.73;;;;;;;;;;5067576;28;20492;-56
2022/01/21 08:19:39;;;;;;;4.80;2.87;;;;;;;;;;5075231;28;20433;-57
2022/01/21 08:22:08;;;;;;;5.03;2.80;;;;;;;;;;5089443;28;20417;-57
2022/01/21 08:24:37;;;;;;;7.87;2.73;;;;;;;;;;5105457;28;20410;-57
2022/01/21 08:27:06;;;;;;;3.40;2.30;;;;;;;;;;5059454;28;20434;-57
2022/01/21 08:29:51;;;;;;;5.60;2.90;;;;;;;;;;5095236;28;20424;-56
2022/01/21 08:32:20;;;;;;;6.30;3.17;;;;;;;;;;5077792;28;20406;-57
2022/01/21 08:34:54;;;;;;;7.10;3.53;;;;;;;;;;5080273;28;20186;-57
2022/01/21 08:37:23;;;;;;;4.30;3.10;;;;;;;;;;5083297;28;20878;-56
2022/01/21 08:39:56;;;;;;;4.47;2.83;;;;;;;;;;5053181;28;20453;-56
2022/01/21 08:42:30;;;;;;;5.95;2.97;;;;;;;;;;5052200;28;20382;-57
2022/01/21 08:45:01;;;;;;;4.30;2.50;;;;;;;;;;5076079;28;20237;-56
2022/01/21 08:47:35;;;;;;;8.23;2.80;;;;;;;;;;5078093;28;20614;-57
2022/01/21 08:50:09;;;;;;;3.77;2.33;;;;;;;;;;5070539;28;20421;-57
2022/01/21 08:52:37;;;;;;;3.40;2.23;;;;;;;;;;5067581;28;20423;-57
2022/01/21 08:55:12;;;;;;;4.57;2.80;;;;;;;;;;5068664;28;20454;-57
2022/01/21 08:57:43;;;;;;;5.70;3.22;;;;;;;;;;5066862;28;20410;-57
2022/01/21 09:00:11;;;;;;;4.67;2.50;;;;;;;;;;5062214;28;20646;-54
2022/01/21 09:02:38;;;;;;;7.17;3.10;;;;;;;;;;5069355;28;20438;-53
2022/01/21 09:05:05;;;;;;;4.57;3.23;;;;;;;;;;5074297;28;20429;-55
2022/01/21 09:07:31;;;;;;;16.83;4.43;;;;;;;;;;5069612;28;20426;-54
2022/01/21 09:09:57;;;;;;;7.77;3.77;;;;;;;;;;5096701;28;20406;-53
2022/01/21 09:12:24;;;;;;;11.10;4.30;;;;;;;;;;5082843;28;20518;-54
2022/01/21 09:14:50;;;;;;;7.27;3.80;;;;;;;;;;5065613;28;20513;-54
2022/01/21 09:17:20;;;;;;;5.80;3.80;;;;;;;;;;5056148;28;20897;-54
2022/01/21 09:19:47;;;;;;;8.47;3.30;;;;;;;;;;5068698;28;20417;-54
2022/01/21 09:22:13;;;;;;;8.60;3.50;;;;;;;;;;5063899;28;20422;-54
2022/01/21 09:24:39;;;;;;;10.17;3.63;;;;;;;;;;5084900;28;20818;-54
2022/01/21 09:27:06;;;;;;;9.00;3.93;;;;;;;;;;5084156;28;20426;-54
2022/01/21 09:29:33;;;;;;;7.13;3.77;;;;;;;;;;5082120;28;20833;-54
2022/01/21 09:32:00;;;;;;;10.73;4.20;;;;;;;;;;5072079;28;20944;-53
2022/01/21 09:34:27;;;;;;;6.17;3.33;;;;;;;;;;5086886;28;20580;-53
2022/01/21 09:36:54;;;;;;;6.13;3.03;;;;;;;;;;5052826;28;20815;-54
2022/01/21 09:39:21;;;;;;;8.97;3.77;;;;;;;;;;5084322;28;20479;-54
2022/01/21 09:41:48;;;;;;;4.93;3.47;;;;;;;;;;5079001;28;20736;-53
2022/01/21 09:44:15;;;;;;;13.90;4.63;;;;;;;;;;5085396;28;20422;-54
2022/01/21 09:46:47;;;;;;;10.63;4.20;;;;;;;;;;5053819;28;20454;-53
2022/01/21 09:49:26;;;;;;;12.03;3.77;;;;;;;;;;5067448;28;20506;-53
2022/01/21 09:51:57;;;;;;;6.57;4.13;;;;;;;;;;5074595;28;20429;-53
2022/01/21 09:54:25;;;;;;;8.73;4.53;;;;;;;;;;5063809;28;20553;-53
2022/01/21 09:56:53;;;;;;;6.83;3.50;;;;;;;;;;5059986;28;20450;-53
2022/01/21 09:59:20;;;;;;;9.67;4.13;;;;;;;;;;5080557;28;20434;-54
2022/01/21 10:02:06;;;;;;;10.07;4.23;;;;;;;;;;5084834;28;20508;-53
2022/01/21 10:04:49;;;;;;;9.80;3.47;;;;;;;;;;5077472;28;20431;-53
2022/01/21 10:07:16;;;;;;;7.73;3.57;;;;;;;;;;5092758;28;20995;-53
2022/01/21 10:09:44;;;;;;;6.97;3.10;;;;;;;;;;5067273;28;20431;-53
2022/01/21 10:12:10;;;;;;;6.13;3.13;;;;;;;;;;5086218;28;20963;-53
2022/01/21 10:14:38;;;;;;;7.93;3.57;;;;;;;;;;5057780;28;20417;-54
2022/01/21 10:17:06;;;;;;;8.93;2.83;;;;;;;;;;5073355;28;20458;-53
2022/01/21 10:19:33;;;;;;;18.77;3.43;;;;;;;;;;5088642;28;21005;-53
2022/01/21 10:22:20;;;;;;;6.53;3.53;;;;;;;;;;5087151;28;20429;-53
2022/01/21 10:25:01;;;;;;;7.27;3.10;;;;;;;;;;5079549;28;20438;-53
2022/01/21 10:27:29;;;;;;;6.03;2.70;;;;;;;;;;5086872;28;20467;-54
2022/01/21 10:29:56;;;;;;;6.33;2.80;;;;;;;;;;5089557;28;20218;-54
2022/01/21 10:32:36;;;;;;;9.03;3.53;;;;;;;;;;5071960;28;20822;-55
2022/01/21 10:35:02;;;;;;;9.93;3.83;;;;;;;;;;5071732;28;20417;-54
2022/01/21 10:37:32;;;;;;;7.03;2.53;;;;;;;;;;5088125;28;20729;-53
2022/01/21 10:40:08;;;;;;;6.97;2.57;;;;;;;;;;5079727;28;20831;-53
2022/01/21 10:42:35;;;;;;;5.30;2.60;;;;;;;;;;5056011;28;20979;-53
2022/01/21 10:45:01;;;;;;;6.47;3.10;;;;;;;;;;5070556;28;20426;-53
2022/01/21 10:47:32;;;;;;;6.33;2.97;;;;;;;;;;5095484;28;20442;-52
2022/01/21 10:50:09;;;;;;;18.30;3.33;;;;;;;;;;5085911;28;20410;-55
2022/01/21 10:52:50;;;;;;;7.17;2.97;;;;;;;;;;5071196;28;20441;-56
2022/01/21 10:55:31;;;;;;;6.60;2.80;;;;;;;;;;5090585;28;20449;-55
2022/01/21 10:58:14;;;;;;;8.40;2.97;;;;;;;;;;5092981;28;20453;-55
2022/01/21 11:01:02;;;;;;;8.57;2.73;;;;;;;;;;5052581;28;20179;-56
2022/01/21 11:03:30;;;;;;;7.90;3.17;;;;;;;;;;5072375;28;20187;-55
2022/01/21 11:06:10;;;;;;;6.17;2.73;;;;;;;;;;5091104;28;20199;-55
2022/01/21 11:08:37;;;;;;;5.27;2.70;;;;;;;;;;5088226;28;20474;-55
2022/01/21 11:11:04;;;;;;;5.27;2.80;;;;;;;;;;5065850;28;20896;-55
2022/01/21 11:13:48;;;;;;;6.03;2.50;;;;;;;;;;5071967;28;20432;-56
2022/01/21 11:16:17;;;;;;;3.27;2.27;;;;;;;;;;5077943;28;20436;-55
2022/01/21 11:18:51;;;;;;;4.70;2.37;;;;;;;;;;5070412;28;20199;-56
2022/01/21 11:21:23;;;;;;;4.73;2.87;;;;;;;;;;5061578;28;20168;-56
2022/01/21 11:23:50;;;;;;;3.60;2.43;;;;;;;;;;5084092;28;20188;-54
2022/01/21 11:26:18;;;;;;;6.33;3.33;;;;;;;;;;5086940;28;20448;-56
2022/01/21 11:28:51;;;;;;;6.10;2.80;;;;;;;;;;5068000;28;20429;-55
2022/01/21 11:31:21;;;;;;;6.13;2.50;;;;;;;;;;5069569;28;20955;-56
2022/01/21 11:33:48;;;;;;;4.50;2.53;;;;;;;;;;5059133;28;20494;-55
2022/01/21 11:36:17;;;;;;;8.20;3.00;;;;;;;;;;5070009;28;20434;-56
2022/01/21 11:38:45;;;;;;;4.07;2.50;;;;;;;;;;5064525;28;20815;-56
2022/01/21 11:41:13;;;;;;;5.67;2.60;;;;;;;;;;5069121;28;20422;-56
2022/01/21 11:43:47;;;;;;;4.03;2.87;;;;;;;;;;5088092;28;20176;-56
2022/01/21 11:46:25;;;;;;;5.10;2.73;;;;;;;;;;5069740;28;21192;-54
2022/01/21 11:48:56;;;;;;;5.07;2.63;;;;;;;;;;5059252;28;20419;-55
2022/01/21 11:51:26;;;;;;;5.37;3.20;;;;;;;;;;5063913;28;20511;-55
2022/01/21 11:53:57;;;;;;;7.20;2.80;;;;;;;;;;5067118;28;20551;-55
2022/01/21 11:56:35;;;;;;;4.73;2.40;;;;;;;;;;5070345;28;20196;-55
2022/01/21 11:59:08;;;;;;;5.70;2.83;;;;;;;;;;5082952;28;20222;-55
2022/01/21 12:01:38;;;;;;;5.63;2.73;;;;;;;;;;5080955;28;20214;-55
2022/01/21 12:04:05;;;;;;;11.70;3.10;;;;;;;;;;5065068;28;20430;-55
2022/01/21 12:06:35;;;;;;;4.47;2.07;;;;;;;;;;5063044;28;20427;-55
2022/01/21 12:09:03;;;;;;;9.13;2.60;;;;;;;;;;5068708;28;20216;-55
2022/01/21 12:11:31;;;;;;;7.23;2.87;;;;;;;;;;5053243;28;20650;-55
2022/01/21 12:13:59;;;;;;;6.17;2.83;;;;;;;;;;5069660;28;20708;-55
2022/01/21 12:17:11;;;;;;;7.50;2.80;;;;;;;;;;5081101;28;20792;-55
2022/01/21 12:19:39;;;;;;;9.40;2.73;;;;;;;;;;5066678;28;20459;-55
2022/01/21 12:22:13;;;;;;;3.30;1.97;;;;;;;;;;5090319;28;20172;-55
2022/01/21 12:24:47;;;;;;;5.43;2.73;;;;;;;;;;5083859;28;20699;-55
2022/01/21 12:27:14;;;;;;;8.00;2.50;;;;;;;;;;5061943;28;20201;-55
2022/01/21 12:29:40;;;;;;;4.07;2.40;;;;;;;;;;5085322;28;20223;-55
2022/01/21 12:35:08;;;;;;;6.00;2.63;;;;;;;;;;5070949;28;20187;-55
2022/01/21 12:40:35;;;;;;;7.43;3.00;;;;;;;;;;5081123;28;20179;-55
2022/01/21 12:43:21;;;;;;;4.53;2.37;;;;;;;;;;5059807;28;20180;-54
2022/01/21 12:46:01;;;;;;;8.83;3.03;;;;;;;;;;5066891;28;20179;-56
2022/01/21 12:48:32;;;;;;;9.40;4.03;;;;;;;;;;5078518;28;20182;-56
2022/01/21 12:51:00;;;;;;;7.83;2.73;;;;;;;;;;5082502;28;20168;-57
2022/01/21 12:53:34;;;;;;;9.93;2.90;;;;;;;;;;5080157;28;20709;-56
2022/01/21 12:56:04;;;;;;;6.40;2.83;;;;;;;;;;5070677;28;20213;-55
2022/01/21 12:58:33;;;;;;;8.20;3.00;;;;;;;;;;5085301;28;20208;-56
2022/01/21 13:01:04;;;;;;;5.63;2.97;;;;;;;;;;5101840;28;20258;-56
2022/01/21 13:03:36;;;;;;;10.30;3.33;;;;;;;;;;5063994;28;20275;-57
2022/01/21 13:06:20;;;;;;;82.17;12.93;;;;;;;;;;5076725;28;20912;-57
2022/01/21 13:08:58;;;;;;;1999.90;222.17;;;;;;;;;;5078313;28;20241;-57
2022/01/21 13:11:25;;;;;;;1999.90;227.13;;;;;;;;;;5082136;28;20476;-57
2022/01/21 13:14:22;;;;;;;1719.00;202.47;;;;;;;;;;5067807;28;20532;-57
2022/01/21 13:16:54;;;;;;;1013.83;117.23;;;;;;;;;;5068023;28;20366;-57
2022/01/21 13:19:20;;;;;;;814.30;96.73;;;;;;;;;;5066204;28;20682;-56
2022/01/21 13:21:47;;;;;;;679.03;84.67;;;;;;;;;;5071377;28;20277;-56
2022/01/21 13:24:37;;;;;;;545.13;65.13;;;;;;;;;;5061394;28;20176;-57
2022/01/21 13:27:01;;;;;;;740.13;82.40;;;;;;;;;;5075532;28;20180;-53
2022/01/21 13:29:28;;;;;;;499.67;58.77;;;;;;;;;;5068795;28;20203;-57
2022/01/21 13:31:59;;;;;;;309.53;37.17;;;;;;;;;;5090161;28;20176;-57
2022/01/21 13:34:30;;;;;;;1999.90;415.00;;;;;;;;;;5085810;28;20182;-57
2022/01/21 13:37:00;;;;;;;1999.90;289.03;;;;;;;;;;5083650;28;20267;-57
2022/01/21 13:39:28;;;;;;;1999.90;233.27;;;;;;;;;;5058279;28;20181;-57
2022/01/21 13:42:03;;;;;;;991.40;112.17;;;;;;;;;;5087675;28;20225;-56
2022/01/21 13:44:38;;;;;;;1018.53;119.73;;;;;;;;;;5086621;28;20187;-56
2022/01/21 13:47:22;;;;;;;271.80;28.47;;;;;;;;;;5063931;28;20206;-57
2022/01/21 13:49:48;;;;;;;457.73;54.20;;;;;;;;;;5073605;28;20271;-57
2022/01/21 13:52:14;;;;;;;400.43;45.37;;;;;;;;;;5066445;28;20172;-57
2022/01/21 13:54:45;;;;;;;306.03;35.17;;;;;;;;;;5081144;28;20307;-57
2022/01/21 13:57:12;;;;;;;302.20;35.60;;;;;;;;;;5056887;28;20505;-56
2022/01/21 13:59:45;;;;;;;263.17;34.60;;;;;;;;;;5075678;28;20202;-56
2022/01/21 14:02:15;;;;;;;370.53;42.10;;;;;;;;;;5063548;28;20647;-56
2022/01/21 14:04:53;;;;;;;349.27;51.80;;;;;;;;;;5070063;28;20561;-56
2022/01/21 14:07:24;;;;;;;238.73;34.33;;;;;;;;;;5063833;28;20176;-55
2022/01/21 14:09:50;;;;;;;115.67;20.20;;;;;;;;;;5048589;28;20186;-55
2022/01/21 14:12:22;;;;;;;144.00;21.20;;;;;;;;;;5073231;28;20900;-56
2022/01/21 14:14:50;;;;;;;27.23;6.00;;;;;;;;;;5076485;28;20203;-55
2022/01/21 14:17:18;;;;;;;14.87;4.20;;;;;;;;;;5079449;28;20205;-56
2022/01/21 14:19:45;;;;;;;27.75;5.80;;;;;;;;;;5072296;28;20420;-58
2022/01/21 14:22:11;;;;;;;25.07;6.33;;;;;;;;;;5072566;28;20175;-57
2022/01/21 14:24:45;;;;;;;33.07;5.70;;;;;;;;;;5075057;28;20171;-57
2022/01/21 14:27:21;;;;;;;26.27;5.17;;;;;;;;;;5080915;28;20185;-57
2022/01/21 14:29:53;;;;;;;23.57;5.47;;;;;;;;;;5075011;28;20776;-57
2022/01/21 14:32:34;;;;;;;23.97;4.67;;;;;;;;;;5082530;28;20241;-57
2022/01/21 14:35:07;;;;;;;25.53;5.10;;;;;;;;;;5081553;28;20176;-57
2022/01/21 14:37:36;;;;;;;10.57;4.70;;;;;;;;;;5068403;28;20191;-57
2022/01/21 14:40:03;;;;;;;15.33;4.37;;;;;;;;;;5067918;28;20259;-57
2022/01/21 14:42:30;;;;;;;16.53;4.00;;;;;;;;;;5062450;28;20180;-58
2022/01/21 14:45:00;;;;;;;11.43;4.23;;;;;;;;;;5065470;28;20639;-57
2022/01/21 14:47:29;;;;;;;10.43;3.27;;;;;;;;;;5079906;28;20195;-57
2022/01/21 14:50:03;;;;;;;10.93;3.30;;;;;;;;;;5075311;28;20249;-57
2022/01/21 14:52:40;;;;;;;10.17;4.50;;;;;;;;;;5071616;28;20597;-57
2022/01/21 14:55:16;;;;;;;11.63;3.53;;;;;;;;;;5083742;28;20215;-57
2022/01/21 14:57:47;;;;;;;12.63;3.40;;;;;;;;;;5077852;28;20564;-57
2022/01/21 15:00:13;;;;;;;16.80;3.93;;;;;;;;;;5074726;28;20674;-58
2022/01/21 15:02:41;;;;;;;5.70;2.97;;;;;;;;;;5064760;28;20218;-58
2022/01/21 15:05:11;;;;;;;6.60;2.43;;;;;;;;;;5091367;28;20164;-57
2022/01/21 15:07:42;;;;;;;10.07;3.73;;;;;;;;;;5070191;28;20239;-56
2022/01/21 15:10:22;;;;;;;13.23;3.53;;;;;;;;;;5084903;28;20172;-57
2022/01/21 15:15:35;;;;;;;6.43;2.80;;;;;;;;;;5089190;28;20240;-56
2022/01/21 15:18:03;;;;;;;6.43;3.20;;;;;;;;;;5080049;28;20679;-57
2022/01/21 15:20:34;;;;;;;6.57;2.80;;;;;;;;;;5075058;28;20618;-58
2022/01/21 15:23:01;;;;;;;5.53;2.20;;;;;;;;;;5070284;28;20639;-57
2022/01/21 15:25:27;;;;;;;10.93;3.00;;;;;;;;;;5064401;28;20176;-57
2022/01/21 15:27:54;;;;;;;6.73;3.83;;;;;;;;;;5064100;28;20199;-57
2022/01/21 15:30:20;;;;;;;4.27;2.43;;;;;;;;;;5077637;28;20230;-58
2022/01/21 15:32:46;;;;;;;4.13;2.90;;;;;;;;;;5059578;28;20184;-58
2022/01/21 15:35:12;;;;;;;4.10;2.63;;;;;;;;;;5075236;28;20175;-58
2022/01/21 15:37:39;;;;;;;10.50;3.33;;;;;;;;;;5051871;28;20203;-58
2022/01/21 15:40:06;;;;;;;7.63;2.87;;;;;;;;;;5070306;28;20395;-57
2022/01/21 15:42:36;;;;;;;3.97;2.23;;;;;;;;;;5057150;28;20179;-57
2022/01/21 15:45:02;;;;;;;4.97;2.80;;;;;;;;;;5087741;28;20696;-57